Monday, September 22, 2014
06:17 UTC
  |  Log In   |  Register Free
Airport Search:

Corpus Christi International Airport
(KCRP)

FAA data valid effective September 18, 2014 - November 13, 2014 (unless otherwise noted).

 
 
 
 
 
 
 
 
 
 
 
 
 
 

Current Aviation Weather for Corpus Christi International Airport (KCRP)

The most recent METAR observation for KCRP was updated at: 0608
METAR Summary (Translated METAR)
KCRP
220551Z 05007KT 10SM FEW020 FEW250 25/22 A3002 RMK AO2 SLP163 T02500222 10289 20250 403110233 50005 $
KRBO
220015Z AUTO 08013KT 10SM CLR 29/23 A2997 RMK AO2 T02850225
(10.1 nm NW from KCRP)
KNGP
220556Z AUTO 08012KT 10SM CLR 27/21 A3001 RMK AO2 SLP160 T02670206 10283 20261 403060239 50004 $
(12.1 nm SE from KCRP)
TAF Summary (Translated TAF)
KCRP
212105Z 2121/2218 09015G20KT P6SM SCT025 BKN150 TEMPO 2121/2123 BKN025 FM220100 09007KT P6SM SCT250 TEMPO 2211/2213 6SM BR MIFG
KNGP
(12.1 nm SE from KCRP)
2123/2223 08012KT 9999 FEW020 FEW120 QNH2988INS FM220600 07008KT 9999 FEW040 FEW120 QNH2985INS TEMPO 2210/2212 6000 BR BECMG 2212/2214 05010G15KT FEW180 QNH2987INS AUTOMATED SENSOR METWATCH 2123 TIL 2209 T24/2212Z T32/2219Z FN00084
  Airport Weather Conditions for KCRP

 Current Weather at CRP
80° F
A Few Clouds
East winds at 11.5 mph
CRP NOAA Radar

Pressure: 30.02 in
Humidity: 74%
Wind: East at 11.5 MPH (10 KT)
Dew Point: 71.1°F
Visibility: 10.00 mi


Airport Weather Forecast for KCRP

Translated METAR and TAF for KCRP
Translated METAR for KCRP (0611 UTC 22 September 2014)
found at http://aviationweather.gov/adds/metars/
 
METAR text: KCRP 220551Z 05007KT 10SM FEW020 FEW250 25/22 A3002 RMK AO2 SLP163 T02500222 10289 20250 403110233 50005 $
Conditions at: KCRP (CORPUS CHRISTI , TX, US) observed 0551 UTC 22 September 2014
Temperature: 25.0°C (77°F)
Dewpoint: 22.2°C (72°F) [RH = 84%]
Pressure (altimeter): 30.02 inches Hg (1016.7 mb)
[Sea-level pressure: 1016.3 mb]
Winds: from the NE (50 degrees) at 8 MPH (7 knots; 3.6 m/s)
Visibility: 10 or more miles (16+ km)
Ceiling: at least 12,000 feet AGL
Clouds: few clouds at 2000 feet AGL
few clouds at 25000 feet AGL
Weather:
SOME DATA ABOVE MAY BE INACCURATE!!!
"$" is an indication the sensor requires maintenance
Translated TAF for KCRP
Forecast for: KCRP (CORPUS CHRISTI , TX, US)
TAF Text: KCRP 220539Z 2206/2306 08006KT P6SM FEW015
Forecast period: 0600 to 1400 UTC 22 September 2014
Forecast type: FROM: standard forecast or significant change
Winds: from the E (80 degrees) at 7 MPH (6 knots; 3.1 m/s)
Visibility: 6 or more miles (10+ km)
Clouds: few clouds at 1500 feet AGL
Weather: no significant weather forecast for this period
TAF Text: TEMPO 2211/2214 6SM BR MIFG
Forecast period: 1100 to 1400 UTC 22 September 2014
Forecast type: TEMPORARY: The following changes expected for less than half the time period
Visibility: 6 miles (10 km)
Weather: BR MIFG  (mist, shallow fog)
TAF Text: FM221400 04010KT P6SM SKC
Forecast period: 1400 to 1800 UTC 22 September 2014
Forecast type: FROM: standard forecast or significant change
Winds: from the NE (40 degrees) at 12 MPH (10 knots; 5.2 m/s)
Visibility: 6 or more miles (10+ km)
Clouds: clear skies
Weather: no significant weather forecast for this period
TAF Text: FM221800 08014KT P6SM SKC
Forecast period: 1800 UTC 22 September 2014 to 0300 UTC 23 September 2014
Forecast type: FROM: standard forecast or significant change
Winds: from the E (80 degrees) at 16 MPH (14 knots; 7.3 m/s)
Visibility: 6 or more miles (10+ km)
Clouds: clear skies
Weather: no significant weather forecast for this period
TAF Text: FM230300 08004KT P6SM FEW020
Forecast period: 0300 to 0600 UTC 23 September 2014
Forecast type: FROM: standard forecast or significant change
Winds: from the E (80 degrees) at 5 MPH (4 knots; 2.1 m/s)
Visibility: 6 or more miles (10+ km)
Clouds: few clouds at 2000 feet AGL
Weather: no significant weather forecast for this period

Find All Airport Services Find A Hotel Find A Rental Car Find A Golf Course Find A Restaurant $100 Hamburger



FBO's on the Field
FBO Company Facility Photos Services Transportation Aviation Fuel Prices: Prices include tax
Catering Weather Repair Courtesy Rental Type 100LL JetA JetA+ MOGAS 8087
 
Atlantic Aviation

This FBO has not yet been rated
FS:Chevron
Last Updated: Sep-19
Login to update fuel prices
SS:
Contact Atlantic AviationMore FBO Information
 
Signature Flight Support

This FBO has not yet been rated
FS:Avfuel
Last Updated: Sep-19
Login to update fuel prices
SS:
Contact Signature Flight SupportMore FBO Information
 
Add another FBO Facility Photos Catering Weather Repair Courtesy Rental Type 100LL JetA JetA+ MOGAS 8087
Services Transportation Aviation Fuel Prices: Prices include tax


model-print
model-print
model-print
model-print